sensor_id;sensor_type;location;lat;lon;timestamp;temperature;humidity
28761;DHT22;15917;50.014;8.352;2023-05-07T00:00:37;17.10;99.90
28761;DHT22;15917;50.014;8.352;2023-05-07T00:03:03;17.10;99.90
28761;DHT22;15917;50.014;8.352;2023-05-07T00:05:28;17.10;99.90
28761;DHT22;15917;50.014;8.352;2023-05-07T00:07:54;17.10;99.90
28761;DHT22;15917;50.014;8.352;2023-05-07T00:10:20;17.10;99.90
28761;DHT22;15917;50.014;8.352;2023-05-07T00:12:46;17.10;99.90
28761;DHT22;15917;50.014;8.352;2023-05-07T00:15:11;17.10;99.90
28761;DHT22;15917;50.014;8.352;2023-05-07T00:17:37;17.10;99.90
28761;DHT22;15917;50.014;8.352;2023-05-07T00:20:04;17.00;99.90
28761;DHT22;15917;50.014;8.352;2023-05-07T00:22:31;17.10;99.90
28761;DHT22;15917;50.014;8.352;2023-05-07T00:24:57;17.10;99.90
28761;DHT22;15917;50.014;8.352;2023-05-07T00:27:24;17.10;99.90
28761;DHT22;15917;50.014;8.352;2023-05-07T00:29:50;17.00;99.90
28761;DHT22;15917;50.014;8.352;2023-05-07T00:32:16;17.00;99.90
28761;DHT22;15917;50.014;8.352;2023-05-07T00:34:42;17.00;99.90
28761;DHT22;15917;50.014;8.352;2023-05-07T00:37:08;17.00;99.90
28761;DHT22;15917;50.014;8.352;2023-05-07T00:39:34;17.00;99.90
28761;DHT22;15917;50.014;8.352;2023-05-07T00:42:00;17.00;99.90
28761;DHT22;15917;50.014;8.352;2023-05-07T00:44:26;16.90;99.90
28761;DHT22;15917;50.014;8.352;2023-05-07T00:46:53;16.90;99.90
28761;DHT22;15917;50.014;8.352;2023-05-07T00:49:19;16.90;99.90
28761;DHT22;15917;50.014;8.352;2023-05-07T00:51:45;16.90;99.90
28761;DHT22;15917;50.014;8.352;2023-05-07T00:54:12;16.90;99.90
28761;DHT22;15917;50.014;8.352;2023-05-07T00:56:38;16.90;99.90
28761;DHT22;15917;50.014;8.352;2023-05-07T00:59:05;16.90;99.90
28761;DHT22;15917;50.014;8.352;2023-05-07T01:01:31;16.90;99.90
28761;DHT22;15917;50.014;8.352;2023-05-07T01:03:57;16.90;99.90
28761;DHT22;15917;50.014;8.352;2023-05-07T01:06:24;16.90;99.90
28761;DHT22;15917;50.014;8.352;2023-05-07T01:08:53;16.90;99.90
28761;DHT22;15917;50.014;8.352;2023-05-07T01:11:22;16.90;99.90
28761;DHT22;15917;50.014;8.352;2023-05-07T01:13:49;16.90;99.90
28761;DHT22;15917;50.014;8.352;2023-05-07T01:16:14;16.90;99.90
28761;DHT22;15917;50.014;8.352;2023-05-07T01:18:40;16.90;99.90
28761;DHT22;15917;50.014;8.352;2023-05-07T01:21:07;16.90;99.90
28761;DHT22;15917;50.014;8.352;2023-05-07T01:23:34;16.90;99.90
28761;DHT22;15917;50.014;8.352;2023-05-07T01:26:00;16.90;99.90
28761;DHT22;15917;50.014;8.352;2023-05-07T01:28:28;16.90;99.90
28761;DHT22;15917;50.014;8.352;2023-05-07T01:31:00;16.80;99.90
28761;DHT22;15917;50.014;8.352;2023-05-07T01:33:30;16.80;99.90
28761;DHT22;15917;50.014;8.352;2023-05-07T01:35:57;16.70;99.90
28761;DHT22;15917;50.014;8.352;2023-05-07T01:38:26;16.80;99.90
28761;DHT22;15917;50.014;8.352;2023-05-07T01:40:52;16.80;99.90
28761;DHT22;15917;50.014;8.352;2023-05-07T01:43:19;16.70;99.90
28761;DHT22;15917;50.014;8.352;2023-05-07T01:45:45;16.80;99.90
28761;DHT22;15917;50.014;8.352;2023-05-07T01:48:11;16.70;99.90
28761;DHT22;15917;50.014;8.352;2023-05-07T01:50:38;16.60;99.90
28761;DHT22;15917;50.014;8.352;2023-05-07T01:53:04;16.70;99.90
28761;DHT22;15917;50.014;8.352;2023-05-07T01:55:30;16.70;99.90
28761;DHT22;15917;50.014;8.352;2023-05-07T01:57:56;16.70;99.90
28761;DHT22;15917;50.014;8.352;2023-05-07T02:00:22;16.70;99.90
28761;DHT22;15917;50.014;8.352;2023-05-07T02:02:47;16.70;99.90
28761;DHT22;15917;50.014;8.352;2023-05-07T02:05:25;16.70;99.90
28761;DHT22;15917;50.014;8.352;2023-05-07T02:07:58;16.70;99.90
28761;DHT22;15917;50.014;8.352;2023-05-07T02:10:25;16.80;99.90
28761;DHT22;15917;50.014;8.352;2023-05-07T02:12:51;16.70;99.90
28761;DHT22;15917;50.014;8.352;2023-05-07T02:15:16;16.80;99.90
28761;DHT22;15917;50.014;8.352;2023-05-07T02:18:05;16.80;99.90
28761;DHT22;15917;50.014;8.352;2023-05-07T02:20:32;16.80;99.90
28761;DHT22;15917;50.014;8.352;2023-05-07T02:22:57;16.80;99.90
28761;DHT22;15917;50.014;8.352;2023-05-07T02:25:25;16.80;99.90
28761;DHT22;15917;50.014;8.352;2023-05-07T02:27:51;16.80;99.90
28761;DHT22;15917;50.014;8.352;2023-05-07T02:30:18;16.80;99.90
28761;DHT22;15917;50.014;8.352;2023-05-07T02:32:44;16.80;99.90
28761;DHT22;15917;50.014;8.352;2023-05-07T02:35:10;16.90;99.90
28761;DHT22;15917;50.014;8.352;2023-05-07T02:37:36;16.90;99.90
28761;DHT22;15917;50.014;8.352;2023-05-07T02:40:03;16.80;99.90
28761;DHT22;15917;50.014;8.352;2023-05-07T02:42:29;16.90;99.90
28761;DHT22;15917;50.014;8.352;2023-05-07T02:44:55;16.80;99.90
28761;DHT22;15917;50.014;8.352;2023-05-07T02:47:21;16.80;99.90
28761;DHT22;15917;50.014;8.352;2023-05-07T02:49:47;16.90;99.90
28761;DHT22;15917;50.014;8.352;2023-05-07T02:52:13;16.80;99.90
28761;DHT22;15917;50.014;8.352;2023-05-07T02:54:39;16.80;99.90
28761;DHT22;15917;50.014;8.352;2023-05-07T02:57:04;16.80;99.90
28761;DHT22;15917;50.014;8.352;2023-05-07T02:59:30;16.80;99.90
28761;DHT22;15917;50.014;8.352;2023-05-07T03:01:56;16.80;99.90
28761;DHT22;15917;50.014;8.352;2023-05-07T03:04:22;16.80;99.90
28761;DHT22;15917;50.014;8.352;2023-05-07T03:06:48;16.80;99.90
28761;DHT22;15917;50.014;8.352;2023-05-07T03:09:13;16.80;99.90
28761;DHT22;15917;50.014;8.352;2023-05-07T03:11:39;16.80;99.90
28761;DHT22;15917;50.014;8.352;2023-05-07T03:14:05;16.70;99.90
28761;DHT22;15917;50.014;8.352;2023-05-07T03:16:31;16.70;99.90
28761;DHT22;15917;50.014;8.352;2023-05-07T03:18:56;16.70;99.90
28761;DHT22;15917;50.014;8.352;2023-05-07T03:21:22;16.70;99.90
28761;DHT22;15917;50.014;8.352;2023-05-07T03:23:48;16.80;99.90
28761;DHT22;15917;50.014;8.352;2023-05-07T03:26:14;16.70;99.90
28761;DHT22;15917;50.014;8.352;2023-05-07T03:28:41;16.70;99.90
28761;DHT22;15917;50.014;8.352;2023-05-07T03:31:11;16.70;99.90
28761;DHT22;15917;50.014;8.352;2023-05-07T03:33:49;16.60;99.90
28761;DHT22;15917;50.014;8.352;2023-05-07T03:36:15;16.60;99.90
28761;DHT22;15917;50.014;8.352;2023-05-07T03:38:41;16.60;99.90
28761;DHT22;15917;50.014;8.352;2023-05-07T03:41:06;16.60;99.90
28761;DHT22;15917;50.014;8.352;2023-05-07T03:43:32;16.60;99.90
28761;DHT22;15917;50.014;8.352;2023-05-07T03:46:04;16.60;99.90
28761;DHT22;15917;50.014;8.352;2023-05-07T03:48:30;16.50;99.90
28761;DHT22;15917;50.014;8.352;2023-05-07T03:50:58;16.60;99.90
28761;DHT22;15917;50.014;8.352;2023-05-07T03:53:27;16.50;99.90
28761;DHT22;15917;50.014;8.352;2023-05-07T03:55:52;16.60;99.90
28761;DHT22;15917;50.014;8.352;2023-05-07T03:58:18;16.40;99.90
28761;DHT22;15917;50.014;8.352;2023-05-07T04:00:44;16.50;99.90
28761;DHT22;15917;50.014;8.352;2023-05-07T04:03:21;16.50;99.90
28761;DHT22;15917;50.014;8.352;2023-05-07T04:05:47;16.50;99.90
28761;DHT22;15917;50.014;8.352;2023-05-07T04:08:13;16.50;99.90
28761;DHT22;15917;50.014;8.352;2023-05-07T04:10:41;16.50;99.90
28761;DHT22;15917;50.014;8.352;2023-05-07T04:13:09;16.50;99.90
28761;DHT22;15917;50.014;8.352;2023-05-07T04:15:36;16.50;99.90
28761;DHT22;15917;50.014;8.352;2023-05-07T04:18:03;16.50;99.90
28761;DHT22;15917;50.014;8.352;2023-05-07T04:20:29;16.50;99.90
28761;DHT22;15917;50.014;8.352;2023-05-07T04:23:00;16.50;99.90
28761;DHT22;15917;50.014;8.352;2023-05-07T04:25:26;16.50;99.90
28761;DHT22;15917;50.014;8.352;2023-05-07T04:27:52;16.50;99.90
28761;DHT22;15917;50.014;8.352;2023-05-07T04:30:18;16.50;99.90
28761;DHT22;15917;50.014;8.352;2023-05-07T04:32:43;16.50;99.90
28761;DHT22;15917;50.014;8.352;2023-05-07T04:35:10;16.50;99.90
28761;DHT22;15917;50.014;8.352;2023-05-07T04:37:37;16.50;99.90
28761;DHT22;15917;50.014;8.352;2023-05-07T04:40:03;16.50;99.90
28761;DHT22;15917;50.014;8.352;2023-05-07T04:42:30;16.50;99.90
28761;DHT22;15917;50.014;8.352;2023-05-07T04:44:59;16.50;99.90
28761;DHT22;15917;50.014;8.352;2023-05-07T04:47:26;16.50;99.90
28761;DHT22;15917;50.014;8.352;2023-05-07T04:49:52;16.50;99.90
28761;DHT22;15917;50.014;8.352;2023-05-07T04:52:17;16.50;99.90
28761;DHT22;15917;50.014;8.352;2023-05-07T04:54:43;16.50;99.90
28761;DHT22;15917;50.014;8.352;2023-05-07T04:57:09;16.50;99.90
28761;DHT22;15917;50.014;8.352;2023-05-07T04:59:35;16.60;99.90
28761;DHT22;15917;50.014;8.352;2023-05-07T05:02:00;16.60;99.90
28761;DHT22;15917;50.014;8.352;2023-05-07T05:04:27;16.60;99.90
28761;DHT22;15917;50.014;8.352;2023-05-07T05:06:53;16.60;99.90
28761;DHT22;15917;50.014;8.352;2023-05-07T05:09:18;16.60;99.90
28761;DHT22;15917;50.014;8.352;2023-05-07T05:11:45;16.60;99.90
28761;DHT22;15917;50.014;8.352;2023-05-07T05:14:10;16.60;99.90
28761;DHT22;15917;50.014;8.352;2023-05-07T05:16:36;16.60;99.90
28761;DHT22;15917;50.014;8.352;2023-05-07T05:19:02;16.70;99.90
28761;DHT22;15917;50.014;8.352;2023-05-07T05:21:30;16.70;99.90
28761;DHT22;15917;50.014;8.352;2023-05-07T05:24:02;16.80;99.90
28761;DHT22;15917;50.014;8.352;2023-05-07T05:26:27;16.80;99.90
28761;DHT22;15917;50.014;8.352;2023-05-07T05:28:53;16.80;99.90
28761;DHT22;15917;50.014;8.352;2023-05-07T05:31:21;16.80;99.90
28761;DHT22;15917;50.014;8.352;2023-05-07T05:33:48;16.80;99.90
28761;DHT22;15917;50.014;8.352;2023-05-07T05:36:14;16.90;99.90
28761;DHT22;15917;50.014;8.352;2023-05-07T05:38:40;16.90;99.90
28761;DHT22;15917;50.014;8.352;2023-05-07T05:41:07;16.90;99.90
28761;DHT22;15917;50.014;8.352;2023-05-07T05:43:34;17.00;99.90
28761;DHT22;15917;50.014;8.352;2023-05-07T05:45:59;17.00;99.90
28761;DHT22;15917;50.014;8.352;2023-05-07T05:48:26;17.00;99.90
28761;DHT22;15917;50.014;8.352;2023-05-07T05:50:52;17.10;99.90
28761;DHT22;15917;50.014;8.352;2023-05-07T05:53:18;17.10;99.90
28761;DHT22;15917;50.014;8.352;2023-05-07T05:55:44;17.20;99.90
28761;DHT22;15917;50.014;8.352;2023-05-07T05:58:11;17.20;99.90
28761;DHT22;15917;50.014;8.352;2023-05-07T06:00:41;17.10;99.90
28761;DHT22;15917;50.014;8.352;2023-05-07T06:03:07;17.20;99.90
28761;DHT22;15917;50.014;8.352;2023-05-07T06:05:34;17.20;99.90
28761;DHT22;15917;50.014;8.352;2023-05-07T06:08:00;17.20;99.90
28761;DHT22;15917;50.014;8.352;2023-05-07T06:10:30;17.20;99.90
28761;DHT22;15917;50.014;8.352;2023-05-07T06:12:56;17.20;99.90
28761;DHT22;15917;50.014;8.352;2023-05-07T06:15:22;17.10;99.90
28761;DHT22;15917;50.014;8.352;2023-05-07T06:17:47;17.10;99.90
28761;DHT22;15917;50.014;8.352;2023-05-07T06:20:14;17.20;99.90
28761;DHT22;15917;50.014;8.352;2023-05-07T06:22:40;17.30;99.90
28761;DHT22;15917;50.014;8.352;2023-05-07T06:25:07;17.40;99.90
28761;DHT22;15917;50.014;8.352;2023-05-07T06:27:33;17.40;99.90
28761;DHT22;15917;50.014;8.352;2023-05-07T06:29:59;17.50;99.90
28761;DHT22;15917;50.014;8.352;2023-05-07T06:32:24;17.50;99.90
28761;DHT22;15917;50.014;8.352;2023-05-07T06:34:51;17.60;99.90
28761;DHT22;15917;50.014;8.352;2023-05-07T06:37:16;17.70;99.90
28761;DHT22;15917;50.014;8.352;2023-05-07T06:40:05;17.80;99.90
28761;DHT22;15917;50.014;8.352;2023-05-07T06:42:33;17.80;99.90
28761;DHT22;15917;50.014;8.352;2023-05-07T06:45:15;17.90;99.90
28761;DHT22;15917;50.014;8.352;2023-05-07T06:47:41;18.00;99.90
28761;DHT22;15917;50.014;8.352;2023-05-07T06:50:07;18.00;99.90
28761;DHT22;15917;50.014;8.352;2023-05-07T06:52:34;18.10;99.90
28761;DHT22;15917;50.014;8.352;2023-05-07T06:55:00;18.10;99.90
28761;DHT22;15917;50.014;8.352;2023-05-07T06:57:26;18.20;99.90
28761;DHT22;15917;50.014;8.352;2023-05-07T06:59:52;18.20;99.90
28761;DHT22;15917;50.014;8.352;2023-05-07T07:02:18;18.40;99.90
28761;DHT22;15917;50.014;8.352;2023-05-07T07:04:44;18.50;99.90
28761;DHT22;15917;50.014;8.352;2023-05-07T07:07:10;18.70;99.90
28761;DHT22;15917;50.014;8.352;2023-05-07T07:09:37;18.80;99.90
28761;DHT22;15917;50.014;8.352;2023-05-07T07:12:04;19.00;99.90
28761;DHT22;15917;50.014;8.352;2023-05-07T07:14:30;19.20;99.90
28761;DHT22;15917;50.014;8.352;2023-05-07T07:16:56;19.30;99.90
28761;DHT22;15917;50.014;8.352;2023-05-07T07:19:23;19.30;99.90
28761;DHT22;15917;50.014;8.352;2023-05-07T07:21:52;19.30;99.90
28761;DHT22;15917;50.014;8.352;2023-05-07T07:24:17;19.30;99.90
28761;DHT22;15917;50.014;8.352;2023-05-07T07:26:47;19.30;99.90
28761;DHT22;15917;50.014;8.352;2023-05-07T07:29:13;19.30;99.90
28761;DHT22;15917;50.014;8.352;2023-05-07T07:31:41;19.30;99.90
28761;DHT22;15917;50.014;8.352;2023-05-07T07:34:06;19.30;99.90
28761;DHT22;15917;50.014;8.352;2023-05-07T07:36:32;19.30;99.90
28761;DHT22;15917;50.014;8.352;2023-05-07T07:38:58;19.30;99.90
28761;DHT22;15917;50.014;8.352;2023-05-07T07:41:24;19.10;99.90
28761;DHT22;15917;50.014;8.352;2023-05-07T07:43:50;19.00;99.90
28761;DHT22;15917;50.014;8.352;2023-05-07T07:46:18;19.00;99.90
28761;DHT22;15917;50.014;8.352;2023-05-07T07:48:43;18.90;99.90
28761;DHT22;15917;50.014;8.352;2023-05-07T07:51:09;18.90;99.90
28761;DHT22;15917;50.014;8.352;2023-05-07T07:53:35;19.00;99.90
28761;DHT22;15917;50.014;8.352;2023-05-07T07:56:01;19.00;99.90
28761;DHT22;15917;50.014;8.352;2023-05-07T07:58:30;19.00;99.90
28761;DHT22;15917;50.014;8.352;2023-05-07T08:00:56;19.00;99.90
28761;DHT22;15917;50.014;8.352;2023-05-07T08:03:23;19.00;99.90
28761;DHT22;15917;50.014;8.352;2023-05-07T08:05:53;19.20;99.90
28761;DHT22;15917;50.014;8.352;2023-05-07T08:08:18;19.20;99.90
28761;DHT22;15917;50.014;8.352;2023-05-07T08:10:44;19.30;99.90
28761;DHT22;15917;50.014;8.352;2023-05-07T08:13:18;19.40;99.90
28761;DHT22;15917;50.014;8.352;2023-05-07T08:15:44;19.40;99.90
28761;DHT22;15917;50.014;8.352;2023-05-07T08:18:11;19.40;99.90
28761;DHT22;15917;50.014;8.352;2023-05-07T08:20:37;19.40;99.90
28761;DHT22;15917;50.014;8.352;2023-05-07T08:23:07;19.40;99.90
28761;DHT22;15917;50.014;8.352;2023-05-07T08:25:34;19.60;99.90
28761;DHT22;15917;50.014;8.352;2023-05-07T08:28:00;19.80;99.90
28761;DHT22;15917;50.014;8.352;2023-05-07T08:30:26;19.80;99.90
28761;DHT22;15917;50.014;8.352;2023-05-07T08:32:52;19.80;99.90
28761;DHT22;15917;50.014;8.352;2023-05-07T08:35:18;19.80;99.90
28761;DHT22;15917;50.014;8.352;2023-05-07T08:37:43;19.80;99.90
28761;DHT22;15917;50.014;8.352;2023-05-07T08:40:10;19.80;99.90
28761;DHT22;15917;50.014;8.352;2023-05-07T08:42:36;20.00;99.90
28761;DHT22;15917;50.014;8.352;2023-05-07T08:45:04;20.10;99.90
28761;DHT22;15917;50.014;8.352;2023-05-07T08:47:40;20.20;99.90
28761;DHT22;15917;50.014;8.352;2023-05-07T08:50:08;20.20;99.90
28761;DHT22;15917;50.014;8.352;2023-05-07T08:52:35;20.30;99.90
28761;DHT22;15917;50.014;8.352;2023-05-07T08:55:02;20.40;99.90
28761;DHT22;15917;50.014;8.352;2023-05-07T08:57:28;20.40;99.90
28761;DHT22;15917;50.014;8.352;2023-05-07T08:59:54;20.40;99.90
28761;DHT22;15917;50.014;8.352;2023-05-07T09:02:19;20.40;99.90
28761;DHT22;15917;50.014;8.352;2023-05-07T09:04:46;20.40;99.90
28761;DHT22;15917;50.014;8.352;2023-05-07T09:07:11;20.40;99.90
28761;DHT22;15917;50.014;8.352;2023-05-07T09:09:41;20.40;99.90
28761;DHT22;15917;50.014;8.352;2023-05-07T09:12:07;20.50;99.90
28761;DHT22;15917;50.014;8.352;2023-05-07T09:14:34;20.60;99.90
28761;DHT22;15917;50.014;8.352;2023-05-07T09:17:01;20.80;99.90
28761;DHT22;15917;50.014;8.352;2023-05-07T09:19:27;20.80;99.90
28761;DHT22;15917;50.014;8.352;2023-05-07T09:21:58;20.90;99.90
28761;DHT22;15917;50.014;8.352;2023-05-07T09:24:25;21.00;99.90
28761;DHT22;15917;50.014;8.352;2023-05-07T09:26:50;21.30;99.90
28761;DHT22;15917;50.014;8.352;2023-05-07T09:29:16;21.50;99.90
28761;DHT22;15917;50.014;8.352;2023-05-07T09:31:43;21.70;99.90
28761;DHT22;15917;50.014;8.352;2023-05-07T09:34:12;21.60;99.90
28761;DHT22;15917;50.014;8.352;2023-05-07T09:36:40;21.70;99.90
28761;DHT22;15917;50.014;8.352;2023-05-07T09:39:06;21.80;99.90
28761;DHT22;15917;50.014;8.352;2023-05-07T09:41:32;21.80;99.90
28761;DHT22;15917;50.014;8.352;2023-05-07T09:44:13;21.80;99.90
28761;DHT22;15917;50.014;8.352;2023-05-07T09:46:43;21.80;99.90
28761;DHT22;15917;50.014;8.352;2023-05-07T09:49:22;21.80;99.90
28761;DHT22;15917;50.014;8.352;2023-05-07T09:51:52;21.70;99.90
28761;DHT22;15917;50.014;8.352;2023-05-07T09:54:20;21.70;99.90
28761;DHT22;15917;50.014;8.352;2023-05-07T09:56:49;21.70;99.90
28761;DHT22;15917;50.014;8.352;2023-05-07T09:59:16;21.80;99.90
28761;DHT22;15917;50.014;8.352;2023-05-07T10:01:44;21.90;99.90
28761;DHT22;15917;50.014;8.352;2023-05-07T10:04:11;21.90;99.90
28761;DHT22;15917;50.014;8.352;2023-05-07T10:06:38;22.00;99.90
28761;DHT22;15917;50.014;8.352;2023-05-07T10:09:05;22.10;99.90
28761;DHT22;15917;50.014;8.352;2023-05-07T10:11:35;22.30;99.90
28761;DHT22;15917;50.014;8.352;2023-05-07T10:14:02;22.50;99.90
28761;DHT22;15917;50.014;8.352;2023-05-07T10:16:32;22.70;99.90
28761;DHT22;15917;50.014;8.352;2023-05-07T10:18:59;23.00;99.90
28761;DHT22;15917;50.014;8.352;2023-05-07T10:21:27;23.10;99.90
28761;DHT22;15917;50.014;8.352;2023-05-07T10:24:00;23.40;99.90
28761;DHT22;15917;50.014;8.352;2023-05-07T10:26:32;23.60;99.90
28761;DHT22;15917;50.014;8.352;2023-05-07T10:29:11;23.90;99.90
28761;DHT22;15917;50.014;8.352;2023-05-07T10:31:56;24.10;99.90
28761;DHT22;15917;50.014;8.352;2023-05-07T10:34:28;24.30;99.90
28761;DHT22;15917;50.014;8.352;2023-05-07T10:36:55;24.40;99.90
28761;DHT22;15917;50.014;8.352;2023-05-07T10:39:22;24.10;99.90
28761;DHT22;15917;50.014;8.352;2023-05-07T10:41:49;24.10;99.90
28761;DHT22;15917;50.014;8.352;2023-05-07T10:44:26;24.00;99.90
28761;DHT22;15917;50.014;8.352;2023-05-07T10:47:12;23.80;99.90
28761;DHT22;15917;50.014;8.352;2023-05-07T10:52:20;24.00;99.90
28761;DHT22;15917;50.014;8.352;2023-05-07T10:58:25;24.20;99.90
28761;DHT22;15917;50.014;8.352;2023-05-07T11:01:02;24.10;99.90
28761;DHT22;15917;50.014;8.352;2023-05-07T11:03:34;24.30;99.90
28761;DHT22;15917;50.014;8.352;2023-05-07T11:06:15;24.30;99.90
28761;DHT22;15917;50.014;8.352;2023-05-07T11:08:55;24.20;99.90
28761;DHT22;15917;50.014;8.352;2023-05-07T11:11:49;24.20;99.90
28761;DHT22;15917;50.014;8.352;2023-05-07T11:14:44;24.10;99.90
28761;DHT22;15917;50.014;8.352;2023-05-07T11:17:15;24.30;99.90
28761;DHT22;15917;50.014;8.352;2023-05-07T11:19:52;24.30;99.90
28761;DHT22;15917;50.014;8.352;2023-05-07T11:22:56;24.40;99.90
28761;DHT22;15917;50.014;8.352;2023-05-07T11:25:43;24.40;99.90
28761;DHT22;15917;50.014;8.352;2023-05-07T11:28:17;24.40;99.90
28761;DHT22;15917;50.014;8.352;2023-05-07T11:30:56;24.60;99.90
28761;DHT22;15917;50.014;8.352;2023-05-07T11:33:22;24.60;99.90
28761;DHT22;15917;50.014;8.352;2023-05-07T11:35:52;24.60;99.90
28761;DHT22;15917;50.014;8.352;2023-05-07T11:38:21;24.60;99.90
28761;DHT22;15917;50.014;8.352;2023-05-07T11:40:52;24.40;99.90
28761;DHT22;15917;50.014;8.352;2023-05-07T11:43:18;24.50;99.90
28761;DHT22;15917;50.014;8.352;2023-05-07T11:45:45;24.60;99.90
28761;DHT22;15917;50.014;8.352;2023-05-07T11:48:13;24.80;99.90
28761;DHT22;15917;50.014;8.352;2023-05-07T11:53:17;25.10;99.90
28761;DHT22;15917;50.014;8.352;2023-05-07T11:55:44;25.20;99.90
28761;DHT22;15917;50.014;8.352;2023-05-07T11:58:12;25.20;99.90
28761;DHT22;15917;50.014;8.352;2023-05-07T12:00:37;25.30;99.90
28761;DHT22;15917;50.014;8.352;2023-05-07T12:03:06;25.40;99.90
28761;DHT22;15917;50.014;8.352;2023-05-07T12:05:32;25.40;99.90
28761;DHT22;15917;50.014;8.352;2023-05-07T12:07:57;25.50;99.90
28761;DHT22;15917;50.014;8.352;2023-05-07T12:10:23;25.70;99.90
28761;DHT22;15917;50.014;8.352;2023-05-07T12:12:51;25.90;99.90
28761;DHT22;15917;50.014;8.352;2023-05-07T12:15:17;26.00;99.90
28761;DHT22;15917;50.014;8.352;2023-05-07T12:17:43;26.10;99.90
28761;DHT22;15917;50.014;8.352;2023-05-07T12:20:09;26.00;99.90
28761;DHT22;15917;50.014;8.352;2023-05-07T12:22:36;25.80;99.90
28761;DHT22;15917;50.014;8.352;2023-05-07T12:25:02;25.70;99.90
28761;DHT22;15917;50.014;8.352;2023-05-07T12:27:28;25.70;99.90
28761;DHT22;15917;50.014;8.352;2023-05-07T12:29:54;25.50;99.90
28761;DHT22;15917;50.014;8.352;2023-05-07T12:32:20;25.50;99.90
28761;DHT22;15917;50.014;8.352;2023-05-07T12:34:49;25.50;99.90
28761;DHT22;15917;50.014;8.352;2023-05-07T12:37:15;25.60;99.70
28761;DHT22;15917;50.014;8.352;2023-05-07T12:40:07;25.60;99.60
28761;DHT22;15917;50.014;8.352;2023-05-07T12:42:35;25.70;99.60
28761;DHT22;15917;50.014;8.352;2023-05-07T12:45:15;25.70;99.50
28761;DHT22;15917;50.014;8.352;2023-05-07T12:47:45;26.00;98.70
28761;DHT22;15917;50.014;8.352;2023-05-07T12:50:11;26.00;98.40
28761;DHT22;15917;50.014;8.352;2023-05-07T12:52:37;25.90;98.10
28761;DHT22;15917;50.014;8.352;2023-05-07T12:55:07;26.00;98.40
28761;DHT22;15917;50.014;8.352;2023-05-07T12:57:53;26.10;97.80
28761;DHT22;15917;50.014;8.352;2023-05-07T13:00:36;26.20;97.60
28761;DHT22;15917;50.014;8.352;2023-05-07T13:03:02;26.30;97.80
28761;DHT22;15917;50.014;8.352;2023-05-07T13:05:27;26.40;96.80
28761;DHT22;15917;50.014;8.352;2023-05-07T13:07:54;26.30;96.40
28761;DHT22;15917;50.014;8.352;2023-05-07T13:10:20;26.40;97.60
28761;DHT22;15917;50.014;8.352;2023-05-07T13:12:45;26.40;96.90
28761;DHT22;15917;50.014;8.352;2023-05-07T13:15:11;26.30;97.10
28761;DHT22;15917;50.014;8.352;2023-05-07T13:17:36;26.20;98.00
28761;DHT22;15917;50.014;8.352;2023-05-07T13:20:02;26.20;97.60
28761;DHT22;15917;50.014;8.352;2023-05-07T13:22:28;26.20;98.00
28761;DHT22;15917;50.014;8.352;2023-05-07T13:24:54;26.20;97.80
28761;DHT22;15917;50.014;8.352;2023-05-07T13:27:20;26.50;97.00
28761;DHT22;15917;50.014;8.352;2023-05-07T13:29:45;26.70;96.80
28761;DHT22;15917;50.014;8.352;2023-05-07T13:32:11;26.90;96.60
28761;DHT22;15917;50.014;8.352;2023-05-07T13:34:36;27.20;96.30
28761;DHT22;15917;50.014;8.352;2023-05-07T13:37:02;27.50;96.10
28761;DHT22;15917;50.014;8.352;2023-05-07T13:39:28;27.60;95.20
28761;DHT22;15917;50.014;8.352;2023-05-07T13:41:53;27.50;96.10
28761;DHT22;15917;50.014;8.352;2023-05-07T13:44:19;27.50;94.90
28761;DHT22;15917;50.014;8.352;2023-05-07T13:46:45;27.40;94.70
28761;DHT22;15917;50.014;8.352;2023-05-07T13:49:10;27.40;94.70
28761;DHT22;15917;50.014;8.352;2023-05-07T13:51:37;27.60;94.40
28761;DHT22;15917;50.014;8.352;2023-05-07T13:54:03;27.60;94.00
28761;DHT22;15917;50.014;8.352;2023-05-07T13:56:29;27.70;94.00
28761;DHT22;15917;50.014;8.352;2023-05-07T13:58:57;27.70;94.40
28761;DHT22;15917;50.014;8.352;2023-05-07T14:01:23;27.60;93.70
28761;DHT22;15917;50.014;8.352;2023-05-07T14:03:48;27.50;94.20
28761;DHT22;15917;50.014;8.352;2023-05-07T14:06:14;27.40;93.20
28761;DHT22;15917;50.014;8.352;2023-05-07T14:08:40;27.30;93.00
28761;DHT22;15917;50.014;8.352;2023-05-07T14:11:06;27.50;93.20
28761;DHT22;15917;50.014;8.352;2023-05-07T14:13:31;27.50;92.80
28761;DHT22;15917;50.014;8.352;2023-05-07T14:15:58;27.50;93.10
28761;DHT22;15917;50.014;8.352;2023-05-07T14:18:23;27.50;93.40
28761;DHT22;15917;50.014;8.352;2023-05-07T14:20:49;27.60;93.00
28761;DHT22;15917;50.014;8.352;2023-05-07T14:23:15;27.50;93.20
28761;DHT22;15917;50.014;8.352;2023-05-07T14:25:42;27.50;94.20
28761;DHT22;15917;50.014;8.352;2023-05-07T14:28:08;27.60;93.90
28761;DHT22;15917;50.014;8.352;2023-05-07T14:30:34;27.50;93.40
28761;DHT22;15917;50.014;8.352;2023-05-07T14:33:00;27.60;93.80
28761;DHT22;15917;50.014;8.352;2023-05-07T14:35:25;27.20;93.10
28761;DHT22;15917;50.014;8.352;2023-05-07T14:37:51;27.00;94.20
28761;DHT22;15917;50.014;8.352;2023-05-07T14:40:17;26.70;94.50
28761;DHT22;15917;50.014;8.352;2023-05-07T14:42:42;26.40;94.50
28761;DHT22;15917;50.014;8.352;2023-05-07T14:45:08;26.20;95.00
28761;DHT22;15917;50.014;8.352;2023-05-07T14:47:34;25.90;96.50
28761;DHT22;15917;50.014;8.352;2023-05-07T14:50:00;25.70;97.10
28761;DHT22;15917;50.014;8.352;2023-05-07T14:52:26;25.50;97.80
28761;DHT22;15917;50.014;8.352;2023-05-07T14:54:52;25.40;98.10
28761;DHT22;15917;50.014;8.352;2023-05-07T14:57:18;25.30;98.50
28761;DHT22;15917;50.014;8.352;2023-05-07T14:59:45;25.30;98.50
28761;DHT22;15917;50.014;8.352;2023-05-07T15:02:11;25.20;98.60
28761;DHT22;15917;50.014;8.352;2023-05-07T15:04:37;25.20;99.30
28761;DHT22;15917;50.014;8.352;2023-05-07T15:07:15;25.10;99.10
28761;DHT22;15917;50.014;8.352;2023-05-07T15:09:41;25.00;99.80
28761;DHT22;15917;50.014;8.352;2023-05-07T15:12:07;24.90;99.90
28761;DHT22;15917;50.014;8.352;2023-05-07T15:14:33;24.90;99.90
28761;DHT22;15917;50.014;8.352;2023-05-07T15:16:58;24.80;99.90
28761;DHT22;15917;50.014;8.352;2023-05-07T15:19:24;24.80;99.90
28761;DHT22;15917;50.014;8.352;2023-05-07T15:21:57;24.70;99.90
28761;DHT22;15917;50.014;8.352;2023-05-07T15:24:23;24.70;99.90
28761;DHT22;15917;50.014;8.352;2023-05-07T15:29:17;24.50;99.90
28761;DHT22;15917;50.014;8.352;2023-05-07T15:31:42;24.40;99.90
28761;DHT22;15917;50.014;8.352;2023-05-07T15:34:08;24.30;99.90
28761;DHT22;15917;50.014;8.352;2023-05-07T15:36:34;24.30;99.90
28761;DHT22;15917;50.014;8.352;2023-05-07T15:38:59;24.20;99.90
28761;DHT22;15917;50.014;8.352;2023-05-07T15:41:27;24.10;99.90
28761;DHT22;15917;50.014;8.352;2023-05-07T15:43:52;24.10;99.90